Es Castell, Spain
Current Conditions -  °F | °C
As of 3:00 PM on Friday 31 Oct 2014 (Local Time) from LEMH Reporting Station
Scattered Clouds Scattered Clouds  
Wind Chill: 72°   Ceiling: Unl
Heat Index: 72°   Visibility: 6mi
Dew Point: 59°   Wind: 14mph
Humidity: 64%   Direction: 90°E
Pressure: 30.21"   Gusts: NA
Location:  39.88°N, 4.29°E
Report Text: LEMH 311400Z 09012KT 050V120 9999 SCT024 22/15 Q1023
Loading
Personal Weather Stations






























Interactive Weather Map
Tropical Storm Tracking
New forecast layout! Learn more

10-Day Weather Forecast

Advertisements
Track Severe Weather on mobile